»·PEaware :: SE-IAM KOTH-KPDX

SE-IAM :: KOTH-KPDX

FLIGHT INFORMATION

Flight Status: Arrived
Operator: Privately registered:
Sweden
More flights under this callsign
Pilot: Gregory J. (18418)
Aircraft: PIPER PA-28 CHEROKEE ARCHER
(P28A)
More flights by this aircraft type
Origin: KOTH North Bend Mun
United States
Destination: KPDX Portland Intl
United States
More flights between these airports :: More routes between these airports
Route: +FOLLOWING COAST ONP UBG
File this flight plan on PilotEdge
Remarks:
Altitude:
(Current/Filed)
65ft
Speed:
(Current/Filed)
90kts
Departed: 23-Apr-18 10:22 AM
Arrived: 23-Apr-18 12:16 PM
Distance/Time
Traveled:
148nm/1:54
Distance/Time
To Go:
Arrived

Flight Plot

Page will automatically refresh every two minutes.

Flight plan parsing failed; only flown route is shown


Map Options




Map Legend


Flown Route
Filed Route
Departure Airport
Arrival Airport
Navaid (VOR, NDB)
Fix

Horizontal Profiles

Position Reports

Time Latitude Longitude Heading Altitude Ground
Speed
23-Apr-18 09:59 43.415914 -124.245805 330 20ft 0kts
23-Apr-18 10:00 43.415914 -124.245805 330 20ft 0kts
23-Apr-18 10:01 43.415914 -124.245805 330 20ft 0kts
23-Apr-18 10:02 43.415914 -124.245805 330 20ft 0kts
23-Apr-18 10:03 43.415914 -124.245805 330 20ft 0kts
23-Apr-18 10:04 43.415914 -124.245805 330 20ft 0kts
23-Apr-18 10:05 43.415914 -124.245805 330 20ft 0kts
23-Apr-18 10:06 43.415914 -124.245805 330 20ft 0kts
23-Apr-18 10:07 43.415914 -124.245805 331 20ft 0kts
23-Apr-18 10:08 43.415914 -124.245805 331 20ft 0kts
23-Apr-18 10:09 43.415914 -124.245805 331 20ft 0kts
23-Apr-18 10:10 43.415914 -124.245805 331 20ft 0kts
23-Apr-18 10:11 43.415914 -124.245805 331 20ft 0kts
23-Apr-18 10:12 43.415914 -124.245805 331 20ft 0kts
23-Apr-18 10:13 43.415914 -124.245805 331 20ft 0kts
23-Apr-18 10:14 43.415914 -124.245805 331 20ft 0kts
23-Apr-18 10:15 43.415914 -124.245805 331 20ft 0kts
23-Apr-18 10:16 43.416061 -124.245433 81 20ft 3kts
23-Apr-18 10:17 43.417258 -124.245628 330 20ft 8kts
23-Apr-18 10:18 43.418929 -124.246900 1 20ft 4kts
23-Apr-18 10:19 43.419025 -124.246867 25 20ft 0kts
23-Apr-18 10:20 43.419150 -124.246718 54 20ft 4kts
23-Apr-18 10:21 43.413409 -124.241363 151 97ft 74kts
23-Apr-18 10:22 43.393899 -124.227482 149 688ft 81kts
23-Apr-18 10:23 43.401578 -124.218934 325 1159ft 85kts
23-Apr-18 10:24 43.422093 -124.224356 356 1690ft 77kts
23-Apr-18 10:25 43.443329 -124.227975 356 2225ft 78kts
23-Apr-18 10:26 43.464457 -124.231224 3 2884ft 77kts
23-Apr-18 10:27 43.485741 -124.230593 4 3516ft 77kts
23-Apr-18 10:28 43.507237 -124.229950 4 4138ft 77kts
23-Apr-18 10:29 43.528899 -124.229347 4 4740ft 78kts
23-Apr-18 10:30 43.550846 -124.228785 4 5313ft 79kts
23-Apr-18 10:31 43.573022 -124.228267 4 5857ft 80kts
23-Apr-18 10:32 43.595376 -124.227765 4 6369ft 81kts
23-Apr-18 10:33 43.619037 -124.226586 5 6525ft 87kts
23-Apr-18 10:34 43.643665 -124.225350 5 6528ft 93kts
23-Apr-18 10:35 43.669721 -124.223991 5 6519ft 94kts
23-Apr-18 10:36 43.695621 -124.222726 4 6518ft 93kts
23-Apr-18 10:37 43.721753 -124.221534 4 6517ft 93kts
23-Apr-18 10:38 43.747801 -124.220431 4 6517ft 93kts
23-Apr-18 10:39 43.773898 -124.219410 4 6503ft 95kts
23-Apr-18 10:40 43.800838 -124.218364 4 6417ft 95kts
23-Apr-18 10:41 43.827579 -124.216996 5 6369ft 95kts
23-Apr-18 10:42 43.853843 -124.215513 5 6351ft 95kts
23-Apr-18 10:43 43.879709 -124.214180 5 6398ft 92kts
23-Apr-18 10:44 43.905307 -124.212967 4 6434ft 92kts
23-Apr-18 10:45 43.930806 -124.211849 4 6411ft 90kts
23-Apr-18 10:46 43.955848 -124.210343 5 6329ft 89kts
23-Apr-18 10:47 43.980328 -124.208884 5 6320ft 86kts
23-Apr-18 10:48 44.005126 -124.207209 7 6463ft 88kts
23-Apr-18 10:49 44.030603 -124.207225 8 6587ft 91kts
23-Apr-18 10:50 44.057589 -124.206707 7 6512ft 96kts
23-Apr-18 10:51 44.084160 -124.205904 8 6466ft 95kts
23-Apr-18 10:52 44.109323 -124.205050 7 6420ft 94kts
23-Apr-18 10:53 44.135566 -124.203495 12 6426ft 92kts
23-Apr-18 10:54 44.160964 -124.199773 13 6457ft 92kts
23-Apr-18 10:55 44.186314 -124.195265 15 6468ft 93kts
23-Apr-18 10:56 44.211924 -124.190495 18 6486ft 92kts
23-Apr-18 10:57 44.237113 -124.184008 16 6515ft 91kts
23-Apr-18 10:58 44.258094 -124.178768 17 6524ft 91kts
23-Apr-18 10:59 44.283534 -124.172375 16 6515ft 92kts
23-Apr-18 11:00 44.313222 -124.164822 19 6491ft 94kts
23-Apr-18 11:01 44.338362 -124.157375 19 6493ft 93kts
23-Apr-18 11:02 44.363547 -124.149827 17 6496ft 93kts
23-Apr-18 11:03 44.388692 -124.141899 18 6487ft 93kts
23-Apr-18 11:04 44.413741 -124.133922 19 6492ft 92kts
23-Apr-18 11:05 44.438671 -124.125386 21 6462ft 94kts
23-Apr-18 11:06 44.463604 -124.117120 20 6468ft 92kts
23-Apr-18 11:07 44.484163 -124.108067 21 6444ft 94kts
23-Apr-18 11:08 44.508513 -124.096011 22 6448ft 93kts
23-Apr-18 11:09 44.532889 -124.084045 23 6448ft 92kts
23-Apr-18 11:10 44.555001 -124.066307 40 6448ft 89kts
23-Apr-18 11:11 44.574278 -124.044690 40 6488ft 88kts
23-Apr-18 11:12 44.593578 -124.023246 39 6502ft 91kts
23-Apr-18 11:13 44.613223 -124.001297 40 6534ft 90kts
23-Apr-18 11:14 44.632910 -123.979427 40 6548ft 89kts
23-Apr-18 11:15 44.652708 -123.957551 39 6522ft 92kts
23-Apr-18 11:16 44.672660 -123.935560 39 6533ft 90kts
23-Apr-18 11:17 44.692576 -123.913723 40 6536ft 90kts
23-Apr-18 11:18 44.712387 -123.892231 39 6538ft 91kts
23-Apr-18 11:19 44.732400 -123.870520 39 6537ft 91kts
23-Apr-18 11:20 44.752761 -123.848625 39 6484ft 93kts
23-Apr-18 11:21 44.774488 -123.829125 34 6434ft 93kts
23-Apr-18 11:22 44.796322 -123.810290 33 6423ft 92kts
23-Apr-18 11:23 44.817396 -123.790755 33 6426ft 89kts
23-Apr-18 11:24 44.837086 -123.769357 35 6419ft 90kts
23-Apr-18 11:25 44.856412 -123.746968 35 6416ft 90kts
23-Apr-18 11:26 44.875790 -123.724621 35 6414ft 90kts
23-Apr-18 11:27 44.895175 -123.702379 34 6442ft 87kts
23-Apr-18 11:28 44.914109 -123.680584 35 6465ft 89kts
23-Apr-18 11:29 44.933047 -123.658173 35 6489ft 89kts
23-Apr-18 11:30 44.951987 -123.635864 35 6509ft 89kts
23-Apr-18 11:31 44.971017 -123.613560 35 6527ft 89kts
23-Apr-18 11:32 44.990085 -123.591321 35 6544ft 89kts
23-Apr-18 11:33 45.009355 -123.568997 35 6515ft 90kts
23-Apr-18 11:34 45.028697 -123.546684 35 6515ft 90kts
23-Apr-18 11:35 45.047837 -123.523764 38 6509ft 90kts
23-Apr-18 11:36 45.066063 -123.499398 38 6501ft 90kts
23-Apr-18 11:37 45.084374 -123.475026 38 6493ft 90kts
23-Apr-18 11:38 45.102365 -123.451174 39 6487ft 90kts
23-Apr-18 11:39 45.119434 -123.425054 43 6499ft 91kts
23-Apr-18 11:40 45.136282 -123.398211 43 6511ft 91kts
23-Apr-18 11:41 45.153051 -123.371545 43 6521ft 91kts
23-Apr-18 11:42 45.169322 -123.344853 44 6528ft 91kts
23-Apr-18 11:43 45.185840 -123.317365 47 6538ft 91kts
23-Apr-18 11:44 45.201455 -123.288770 47 6548ft 91kts
23-Apr-18 11:45 45.216922 -123.259888 48 6557ft 91kts
23-Apr-18 11:46 45.232252 -123.230942 47 6560ft 92kts
23-Apr-18 11:47 45.247932 -123.201558 47 6443ft 101kts
23-Apr-18 11:48 45.263948 -123.173859 47 6440ft 92kts
23-Apr-18 11:49 45.279521 -123.146374 53 6387ft 88kts
23-Apr-18 11:50 45.293688 -123.117375 54 6377ft 88kts
23-Apr-18 11:51 45.307482 -123.088765 54 6376ft 88kts
23-Apr-18 11:52 45.321161 -123.060648 53 6425ft 84kts
23-Apr-18 11:53 45.334658 -123.033021 54 6466ft 79kts
23-Apr-18 11:54 45.348030 -123.006378 50 6033ft 81kts
23-Apr-18 11:55 45.362682 -122.980540 46 5552ft 85kts
23-Apr-18 11:56 45.377978 -122.954908 46 5145ft 82kts
23-Apr-18 11:57 45.393600 -122.930015 44 4718ft 85kts
23-Apr-18 11:58 45.408522 -122.908033 44 4378ft 86kts
23-Apr-18 11:59 45.426969 -122.887274 42 4404ft 86kts
23-Apr-18 12:00 45.445979 -122.866749 43 4071ft 85kts
23-Apr-18 12:01 45.463569 -122.847203 44 3768ft 80kts
23-Apr-18 12:02 45.480349 -122.828205 43 3437ft 81kts
23-Apr-18 12:03 45.497481 -122.808883 43 3154ft 77kts
23-Apr-18 12:04 45.515134 -122.789517 42 3000ft 83kts
23-Apr-18 12:05 45.535003 -122.772026 36 2916ft 90kts
23-Apr-18 12:06 45.557495 -122.755903 37 2762ft 83kts
23-Apr-18 12:07 45.577273 -122.740799 41 2476ft 81kts
23-Apr-18 12:08 45.595853 -122.727479 33 2261ft 69kts
23-Apr-18 12:09 45.613704 -122.717476 30 1934ft 68kts
23-Apr-18 12:10 45.624220 -122.699658 72 1646ft 67kts
23-Apr-18 12:11 45.622867 -122.674491 100 1417ft 66kts
23-Apr-18 12:12 45.613793 -122.651119 112 1196ft 66kts
23-Apr-18 12:13 45.606430 -122.627557 101 736ft 69kts
23-Apr-18 12:14 45.598225 -122.604733 112 149ft 58kts
23-Apr-18 12:15 45.592575 -122.589839 117 32ft 22kts
23-Apr-18 12:16 45.590437 -122.584386 116 32ft 14kts
23-Apr-18 12:17 45.587940 -122.578021 118 32ft 20kts
23-Apr-18 12:18 45.586370 -122.576311 208 32ft 3kts
23-Apr-18 12:19 45.585544 -122.578172 298 32ft 5kts
23-Apr-18 12:20 45.585615 -122.578351 299 32ft 0kts
23-Apr-18 12:21 45.585615 -122.578351 299 32ft 0kts

Navigation Log

Ident Type
Flight plan parsing failed, navigation log unavailable